Главная страница
METAR-TAF:

METAR-TAF

Аэропорты :

Draugen, Норвегия

широта: 64-21-20N, долгота: 007-47-30E, высота над уровнем моря: 0 м

Текущие метеонаблюдения

Эта сводка был подготовлена 31 минут назад, в 14:20 UTC
Ветер 4 Узел от восточный
Температура 15°C
Влажность 72%
Давление 1008 hPa
Видимость 10 км и более

METAR: ENDR 221420Z AUTO 08004KT 9999NDV BKN120/// BKN160/// 15/10 Q1008 W///S3

Время: 16:51 (14:51 UTC)


TAF: отсутствует

Метеонаблюдения и прогнозы для более 4000 аэропортов (сводки METAR и TAF).

Имеющиеся станции представлены на карте желтыми и красными точками.

Чтобы увидеть название станции, наведите на нее мышь.

Затем щелкните, чтобы увидеть метеонаблюдения и метеопрогнозы.

Управление картой: чтобы увеличить масштаб, щелкните зеленые кнопки с черным крестиком; чтобы уменьшить масштаб, щелкните зеленую кнопку с тире; для просмотра соседних карт щелкайте зеленые стрелки.


METAR-TAF: